Аэропорт: Орск. Орск

ICAO: UWOR

METAR:
2018/11/19 10:00
UWOR 191000Z 29004MPS CAVOK 03/M07 Q1024 R25/810055 NOSIG RMK QFE745/0993
METAR:
2015/12/20 18:00
TAF UWOR 201700Z 2018/2103 15010G15MPS 2000 SN BLSN OVC007 
      TEMPO 2018/2024 19015MPS 1200 SN BLSN OVC005